Time,TemperatureF,DewpointF,PressureIn,WindDirection,WindDirectionDegrees,WindSpeedMPH,WindSpeedGustMPH,Humidity,HourlyPrecipIn,Conditions,Clouds,dailyrainin,SoftwareType,DateUTC
2013-05-24 00:00:00,42.8,35.7,30.35,NNE,23,20.8,25.7,76,0.00,,,0.00,WUHU216HW,2013-05-24 04:00:00,
2013-05-24 00:01:00,42.8,35.7,30.35,NNE,23,20.8,25.7,76,0.00,,,0.00,WUHU216HW,2013-05-24 04:01:00,
2013-05-24 00:02:00,42.8,36.0,30.35,NNE,23,23.2,25.7,77,0.00,,,0.00,WUHU216HW,2013-05-24 04:02:00,
2013-05-24 00:07:00,42.6,36.2,30.35,North,0,20.5,25.7,78,0.00,,,0.00,WUHU216HW,2013-05-24 04:07:00,
2013-05-24 00:12:00,42.4,35.3,30.35,NNE,23,21.6,24.3,76,0.00,,,0.00,WUHU216HW,2013-05-24 04:12:00,
2013-05-24 00:17:00,42.0,35.3,30.36,NNE,23,21.6,24.8,77,0.00,,,0.00,WUHU216HW,2013-05-24 04:17:00,
2013-05-24 00:22:00,41.9,35.1,30.35,NNE,23,20.1,28.6,77,0.00,,,0.00,WUHU216HW,2013-05-24 04:22:00,
2013-05-24 00:28:00,41.7,35.3,30.36,NNE,23,21.9,28.6,78,0.00,,,0.00,WUHU216HW,2013-05-24 04:28:00,
2013-05-24 00:33:00,41.7,34.0,30.37,NNE,23,18.7,26.3,74,0.00,,,0.00,WUHU216HW,2013-05-24 04:33:00,
2013-05-24 00:38:00,41.5,34.1,30.37,North,0,20.3,26.3,75,0.00,,,0.00,WUHU216HW,2013-05-24 04:38:00,
2013-05-24 00:43:00,41.5,35.1,30.37,NNE,23,26.6,26.6,78,0.00,,,0.00,WUHU216HW,2013-05-24 04:43:00,
2013-05-24 00:48:00,41.1,33.8,30.37,NNE,23,16.7,27.7,75,0.00,,,0.00,WUHU216HW,2013-05-24 04:48:00,
2013-05-24 00:53:00,41.1,34.4,30.38,NNE,23,19.4,27.7,77,0.00,,,0.00,WUHU216HW,2013-05-24 04:53:00,
2013-05-24 00:58:00,41.1,34.1,30.38,North,0,21.9,26.8,76,0.00,,,0.00,WUHU216HW,2013-05-24 04:58:00,
2013-05-24 01:03:00,40.8,34.0,30.38,NNE,23,21.6,23.2,77,0.00,,,0.00,WUHU216HW,2013-05-24 05:03:00,
2013-05-24 01:08:00,40.6,33.6,30.38,NNE,23,21.4,23.2,76,0.00,,,0.00,WUHU216HW,2013-05-24 05:08:00,
2013-05-24 01:13:00,40.6,33.6,30.38,North,0,21.2,23.2,76,0.00,,,0.00,WUHU216HW,2013-05-24 05:13:00,
2013-05-24 01:19:00,40.2,32.2,30.38,NNE,23,19.4,21.4,73,0.00,,,0.00,WUHU216HW,2013-05-24 05:19:00,
2013-05-24 01:24:00,40.4,33.4,30.39,NNE,23,27.0,27.0,76,0.00,,,0.00,WUHU216HW,2013-05-24 05:24:00,
2013-05-24 01:29:00,40.4,33.0,30.39,NNE,23,22.3,27.0,75,0.00,,,0.00,WUHU216HW,2013-05-24 05:29:00,
2013-05-24 01:34:00,40.2,33.2,30.40,NNE,23,23.7,23.7,76,0.00,,,0.00,WUHU216HW,2013-05-24 05:34:00,
2013-05-24 01:39:00,40.4,33.0,30.39,NNE,23,25.5,26.6,75,0.00,,,0.00,WUHU216HW,2013-05-24 05:39:00,
2013-05-24 01:44:00,40.2,33.2,30.40,NNE,23,21.0,26.6,76,0.00,,,0.00,WUHU216HW,2013-05-24 05:44:00,
2013-05-24 01:49:00,40.2,32.9,30.39,North,0,21.4,26.1,75,0.00,,,0.00,WUHU216HW,2013-05-24 05:49:00,
2013-05-24 01:54:00,40.2,32.9,30.39,NNE,23,21.6,26.1,75,0.00,,,0.00,WUHU216HW,2013-05-24 05:54:00,
2013-05-24 01:59:00,40.2,32.5,30.39,NNE,23,21.0,26.8,74,0.00,,,0.00,WUHU216HW,2013-05-24 05:59:00,
2013-05-24 02:05:00,39.9,31.9,30.39,NNE,23,21.6,26.8,73,0.00,,,0.00,WUHU216HW,2013-05-24 06:05:00,
2013-05-24 02:10:00,40.1,32.7,30.38,NNE,23,21.2,26.1,75,0.00,,,0.00,WUHU216HW,2013-05-24 06:10:00,
2013-05-24 02:15:00,40.1,32.4,30.39,North,0,11.6,26.1,74,0.00,,,0.00,WUHU216HW,2013-05-24 06:15:00,
2013-05-24 02:20:00,39.5,30.8,30.39,North,0,14.0,22.3,71,0.00,,,0.00,WUHU216HW,2013-05-24 06:20:00,
2013-05-24 02:25:00,39.7,32.4,30.39,NNE,23,22.1,22.1,75,0.00,,,0.00,WUHU216HW,2013-05-24 06:25:00,
2013-05-24 02:30:00,39.5,30.8,30.38,North,0,20.1,22.1,71,0.00,,,0.00,WUHU216HW,2013-05-24 06:30:00,
2013-05-24 02:35:00,39.9,32.5,30.39,North,0,19.6,21.0,75,0.00,,,0.00,WUHU216HW,2013-05-24 06:35:00,
2013-05-24 02:40:00,39.7,31.7,30.39,North,0,18.3,27.0,73,0.00,,,0.00,WUHU216HW,2013-05-24 06:40:00,
2013-05-24 02:45:00,39.9,31.5,30.39,North,0,22.3,27.0,72,0.00,,,0.00,WUHU216HW,2013-05-24 06:45:00,
2013-05-24 02:51:00,39.9,32.5,30.39,NNE,23,21.0,24.3,75,0.00,,,0.00,WUHU216HW,2013-05-24 06:51:00,
2013-05-24 02:56:00,39.7,31.4,30.40,North,0,21.0,23.7,71,0.00,,,0.00,WUHU216HW,2013-05-24 06:56:00,
2013-05-24 03:01:00,39.9,32.2,30.40,North,0,7.6,23.7,74,0.00,,,0.00,WUHU216HW,2013-05-24 07:01:00,
2013-05-24 03:06:00,39.7,31.4,30.40,North,0,20.8,23.0,72,0.00,,,0.00,WUHU216HW,2013-05-24 07:06:00,
2013-05-24 03:11:00,39.7,30.7,30.40,NNE,23,22.3,23.0,70,0.00,,,0.00,WUHU216HW,2013-05-24 07:11:00,
2013-05-24 03:16:00,39.5,31.2,30.41,North,0,14.3,22.8,72,0.00,,,0.00,WUHU216HW,2013-05-24 07:16:00,
2013-05-24 03:21:00,39.3,30.3,30.40,NNE,23,12.9,22.8,70,0.00,,,0.00,WUHU216HW,2013-05-24 07:21:00,
2013-05-24 03:26:00,39.0,29.6,30.40,NNE,23,12.0,20.5,69,0.00,,,0.00,WUHU216HW,2013-05-24 07:26:00,
2013-05-24 03:31:00,38.8,30.5,30.40,North,0,8.2,13.1,72,0.00,,,0.00,WUHU216HW,2013-05-24 07:31:00,
2013-05-24 03:37:00,38.8,29.4,30.40,North,0,5.8,14.5,69,0.00,,,0.00,WUHU216HW,2013-05-24 07:37:00,
2013-05-24 03:50:00,39.2,31.7,30.40,North,0,22.1,22.1,73,0.00,,,0.00,WUHU216HW,2013-05-24 07:50:00,
2013-05-24 03:55:00,39.3,31.3,30.40,NNE,23,20.5,22.1,73,0.00,,,0.00,WUHU216HW,2013-05-24 07:55:00,
2013-05-24 04:00:00,39.2,32.2,30.40,NNE,23,21.6,22.5,76,0.00,,,0.00,WUHU216HW,2013-05-24 08:00:00,
2013-05-24 04:05:00,39.3,31.7,30.41,NNE,23,20.5,25.5,74,0.00,,,0.00,WUHU216HW,2013-05-24 08:05:00,
2013-05-24 04:10:00,39.5,32.5,30.41,North,0,8.2,25.5,76,0.00,,,0.00,WUHU216HW,2013-05-24 08:10:00,
2013-05-24 04:15:00,39.0,30.3,30.41,NNE,23,16.3,21.0,71,0.00,,,0.00,WUHU216HW,2013-05-24 08:15:00,
2013-05-24 04:20:00,39.0,31.7,30.41,NNE,23,22.1,22.1,75,0.00,,,0.00,WUHU216HW,2013-05-24 08:20:00,
2013-05-24 04:26:00,39.3,32.7,30.42,NNE,23,21.6,22.3,77,0.00,,,0.00,WUHU216HW,2013-05-24 08:26:00,
2013-05-24 04:31:00,39.3,31.7,30.42,North,0,22.3,22.3,74,0.00,,,0.00,WUHU216HW,2013-05-24 08:31:00,
2013-05-24 04:36:00,39.3,31.7,30.42,NNE,23,5.5,24.6,74,0.00,,,0.00,WUHU216HW,2013-05-24 08:36:00,
2013-05-24 04:41:00,39.0,31.0,30.42,NNW,338,6.7,24.6,73,0.00,,,0.00,WUHU216HW,2013-05-24 08:41:00,
2013-05-24 04:46:00,38.4,29.8,30.43,ENE,68,2.0,6.7,71,0.00,,,0.00,WUHU216HW,2013-05-24 08:46:00,
2013-05-24 04:51:00,38.3,29.7,30.43,NNW,338,0.0,18.3,71,0.00,,,0.00,WUHU216HW,2013-05-24 08:51:00,
2013-05-24 04:56:00,38.1,29.5,30.43,NW,315,5.3,18.3,71,0.00,,,0.00,WUHU216HW,2013-05-24 08:56:00,
2013-05-24 05:01:00,37.9,29.0,30.42,NNW,338,9.6,9.6,70,0.00,,,0.00,WUHU216HW,2013-05-24 09:01:00,
2013-05-24 05:06:00,37.9,29.0,30.42,North,0,4.2,9.6,70,0.00,,,0.00,WUHU216HW,2013-05-24 09:06:00,
2013-05-24 05:08:00,37.9,28.6,30.42,North,0,10.0,10.0,69,0.00,,,0.00,WUHU216HW,2013-05-24 09:08:00,
2013-05-24 05:20:00,37.7,28.5,30.42,North,0,1.7,10.0,69,0.00,,,0.00,WUHU216HW,2013-05-24 09:20:00,
2013-05-24 05:25:00,38.3,30.0,30.43,NW,315,1.5,22.1,72,0.00,,,0.00,WUHU216HW,2013-05-24 09:25:00,
2013-05-24 05:30:00,38.1,29.5,30.43,NW,315,7.8,13.8,71,0.00,,,0.00,WUHU216HW,2013-05-24 09:30:00,
2013-05-24 05:35:00,37.9,29.0,30.43,North,0,8.9,9.8,70,0.00,,,0.00,WUHU216HW,2013-05-24 09:35:00,
2013-05-24 05:40:00,37.9,29.3,30.43,North,0,8.5,11.1,71,0.00,,,0.00,WUHU216HW,2013-05-24 09:40:00,
2013-05-24 05:46:00,37.7,28.9,30.43,North,0,11.1,11.1,70,0.00,,,0.00,WUHU216HW,2013-05-24 09:46:00,
2013-05-24 05:51:00,37.5,29.0,30.43,NW,315,2.6,11.1,71,0.00,,,0.00,WUHU216HW,2013-05-24 09:51:00,
2013-05-24 05:56:00,37.5,29.0,30.44,NNE,23,4.2,11.1,71,0.00,,,0.00,WUHU216HW,2013-05-24 09:56:00,
2013-05-24 06:01:00,37.4,28.9,30.44,NW,315,3.5,4.2,71,0.00,,,0.00,WUHU216HW,2013-05-24 10:01:00,
2013-05-24 06:06:00,37.7,29.5,30.44,NNE,23,7.6,7.6,72,0.00,,,0.00,WUHU216HW,2013-05-24 10:06:00,
2013-05-24 06:11:00,38.1,30.5,30.44,NNE,23,12.9,20.1,74,0.00,,,0.00,WUHU216HW,2013-05-24 10:11:00,
2013-05-24 06:16:00,38.1,30.2,30.45,NW,315,4.4,20.1,73,0.00,,,0.00,WUHU216HW,2013-05-24 10:16:00,
2013-05-24 06:21:00,37.9,29.3,30.45,NNE,23,0.0,5.8,71,0.00,,,0.00,WUHU216HW,2013-05-24 10:21:00,
2013-05-24 06:26:00,37.9,29.7,30.46,NNW,338,2.0,4.9,72,0.00,,,0.00,WUHU216HW,2013-05-24 10:26:00,
2013-05-24 06:31:00,37.9,29.7,30.46,NNE,23,2.2,5.1,72,0.00,,,0.00,WUHU216HW,2013-05-24 10:31:00,
2013-05-24 06:37:00,37.9,29.7,30.46,NW,315,0.0,5.1,72,0.00,,,0.00,WUHU216HW,2013-05-24 10:37:00,
2013-05-24 06:42:00,37.7,29.2,30.46,North,0,6.0,6.0,71,0.00,,,0.00,WUHU216HW,2013-05-24 10:42:00,
2013-05-24 06:47:00,37.7,28.9,30.46,North,0,5.8,6.0,70,0.00,,,0.00,WUHU216HW,2013-05-24 10:47:00,
2013-05-24 06:52:00,37.5,28.7,30.47,North,0,6.4,11.8,70,0.00,,,0.00,WUHU216HW,2013-05-24 10:52:00,
2013-05-24 06:57:00,37.5,28.3,30.48,North,0,5.5,11.8,69,0.00,,,0.00,WUHU216HW,2013-05-24 10:57:00,
2013-05-24 07:02:00,37.7,28.9,30.47,NNW,338,4.0,10.7,70,0.00,,,0.00,WUHU216HW,2013-05-24 11:02:00,
2013-05-24 07:07:00,37.7,28.9,30.47,NW,315,0.0,10.7,70,0.00,,,0.00,WUHU216HW,2013-05-24 11:07:00,
2013-05-24 07:12:00,37.7,28.9,30.47,North,0,5.3,14.0,70,0.00,,,0.00,WUHU216HW,2013-05-24 11:12:00,
2013-05-24 07:17:00,37.7,29.2,30.47,WNW,293,0.0,14.0,71,0.00,,,0.00,WUHU216HW,2013-05-24 11:17:00,
2013-05-24 07:23:00,37.7,28.9,30.47,NNE,23,0.0,8.9,70,0.00,,,0.00,WUHU216HW,2013-05-24 11:23:00,
2013-05-24 07:28:00,37.7,29.2,30.47,NNE,23,6.0,8.9,71,0.00,,,0.00,WUHU216HW,2013-05-24 11:28:00,
2013-05-24 07:33:00,37.7,28.9,30.46,NNE,23,6.9,6.9,70,0.00,,,0.00,WUHU216HW,2013-05-24 11:33:00,
2013-05-24 07:38:00,37.7,28.9,30.47,NW,315,0.0,6.9,70,0.00,,,0.00,WUHU216HW,2013-05-24 11:38:00,
2013-05-24 07:43:00,37.9,29.0,30.47,North,0,3.5,6.9,71,0.00,,,0.00,WUHU216HW,2013-05-24 11:43:00,
2013-05-24 07:48:00,37.9,29.0,30.48,NNE,23,5.1,14.9,70,0.00,,,0.00,WUHU216HW,2013-05-24 11:48:00,
2013-05-24 07:53:00,37.9,28.6,30.48,North,0,9.8,14.9,69,0.00,,,0.00,WUHU216HW,2013-05-24 11:53:00,
2013-05-24 07:58:00,37.9,28.6,30.48,North,0,17.8,17.8,69,0.00,,,0.00,WUHU216HW,2013-05-24 11:58:00,
2013-05-24 08:03:00,38.1,29.5,30.48,North,0,11.1,18.3,71,0.00,,,0.00,WUHU216HW,2013-05-24 12:03:00,
2013-05-24 08:08:00,38.3,29.0,30.48,NNW,338,3.1,18.3,69,0.00,,,0.00,WUHU216HW,2013-05-24 12:08:00,
2013-05-24 08:13:00,38.3,29.0,30.49,North,0,4.4,4.4,69,0.00,,,0.00,WUHU216HW,2013-05-24 12:13:00,
2013-05-24 08:18:00,38.4,29.1,30.50,North,0,5.8,5.8,69,0.00,,,0.00,WUHU216HW,2013-05-24 12:18:00,
2013-05-24 08:23:00,38.4,29.1,30.50,NNE,23,5.3,7.3,69,0.00,,,0.00,WUHU216HW,2013-05-24 12:23:00,
2013-05-24 08:28:00,38.8,29.4,30.50,NNE,23,8.2,8.2,69,0.00,,,0.00,WUHU216HW,2013-05-24 12:28:00,
2013-05-24 08:34:00,38.8,29.4,30.50,North,0,1.7,8.2,69,0.00,,,0.00,WUHU216HW,2013-05-24 12:34:00,
2013-05-24 08:39:00,39.0,29.6,30.50,North,0,2.2,8.7,69,0.00,,,0.00,WUHU216HW,2013-05-24 12:39:00,
2013-05-24 08:44:00,39.0,29.2,30.51,North,0,5.5,8.7,68,0.00,,,0.00,WUHU216HW,2013-05-24 12:44:00,
2013-05-24 08:49:00,39.0,29.2,30.51,NW,315,4.4,5.5,68,0.00,,,0.00,WUHU216HW,2013-05-24 12:49:00,
2013-05-24 08:54:00,39.3,29.6,30.50,NE,45,11.8,16.3,68,0.00,,,0.00,WUHU216HW,2013-05-24 12:54:00,
2013-05-24 08:59:00,39.3,29.6,30.50,North,0,6.0,16.3,68,0.00,,,0.00,WUHU216HW,2013-05-24 12:59:00,
2013-05-24 09:04:00,39.7,29.6,30.50,NW,315,4.2,16.1,67,0.00,,,0.00,WUHU216HW,2013-05-24 13:04:00,
2013-05-24 09:09:00,40.1,29.9,30.51,North,0,4.4,6.0,67,0.00,,,0.00,WUHU216HW,2013-05-24 13:09:00,
2013-05-24 09:14:00,40.1,29.5,30.50,North,0,4.4,6.9,65,0.00,,,0.00,WUHU216HW,2013-05-24 13:14:00,
2013-05-24 09:19:00,40.2,30.1,30.50,North,0,5.8,6.9,67,0.00,,,0.00,WUHU216HW,2013-05-24 13:19:00,
2013-05-24 09:25:00,39.9,29.7,30.51,NNE,23,8.5,8.5,67,0.00,,,0.00,WUHU216HW,2013-05-24 13:25:00,
2013-05-24 09:30:00,40.1,29.9,30.51,NNE,23,19.6,19.6,67,0.00,,,0.00,WUHU216HW,2013-05-24 13:30:00,
2013-05-24 09:35:00,40.2,30.1,30.51,North,0,6.9,19.6,67,0.00,,,0.00,WUHU216HW,2013-05-24 13:35:00,
2013-05-24 09:40:00,41.3,29.6,30.51,NNE,23,15.2,19.6,63,0.00,,,0.00,WUHU216HW,2013-05-24 13:40:00,
2013-05-24 09:45:00,41.3,30.4,30.51,NNE,23,17.6,17.6,65,0.00,,,0.00,WUHU216HW,2013-05-24 13:45:00,
2013-05-24 09:50:00,41.3,30.4,30.51,North,0,12.7,17.6,65,0.00,,,0.00,WUHU216HW,2013-05-24 13:50:00,
2013-05-24 09:55:00,41.5,29.8,30.51,North,0,20.3,21.0,63,0.00,,,0.00,WUHU216HW,2013-05-24 13:55:00,
2013-05-24 10:00:00,41.3,28.9,30.51,NE,45,6.2,21.0,61,0.00,,,0.00,WUHU216HW,2013-05-24 14:00:00,
2013-05-24 10:06:00,42.2,30.5,30.51,North,0,19.4,20.5,63,0.00,,,0.00,WUHU216HW,2013-05-24 14:06:00,
2013-05-24 10:11:00,42.4,29.8,30.51,North,0,20.5,20.5,61,0.00,,,0.00,WUHU216HW,2013-05-24 14:11:00,
2013-05-24 10:16:00,42.9,31.9,30.52,North,0,15.2,21.9,65,0.00,,,0.00,WUHU216HW,2013-05-24 14:16:00,
2013-05-24 10:21:00,43.1,30.9,30.53,NNW,338,6.2,21.9,62,0.00,,,0.00,WUHU216HW,2013-05-24 14:21:00,
2013-05-24 10:26:00,42.9,31.5,30.52,North,0,21.9,22.8,64,0.00,,,0.00,WUHU216HW,2013-05-24 14:26:00,
2013-05-24 10:31:00,42.9,32.3,30.53,NNE,23,21.6,24.8,66,0.00,,,0.00,WUHU216HW,2013-05-24 14:31:00,
2013-05-24 10:36:00,42.9,32.9,30.53,North,0,22.3,24.8,68,0.00,,,0.00,WUHU216HW,2013-05-24 14:36:00,
2013-05-24 10:41:00,43.5,33.2,30.53,NE,45,19.6,23.2,67,0.00,,,0.00,WUHU216HW,2013-05-24 14:41:00,
2013-05-24 10:46:00,43.5,33.2,30.53,NNE,23,22.1,22.8,67,0.00,,,0.00,WUHU216HW,2013-05-24 14:46:00,
2013-05-24 10:52:00,42.9,33.1,30.53,NNE,23,17.4,22.8,68,0.00,,,0.00,WUHU216HW,2013-05-24 14:52:00,
2013-05-24 10:57:00,43.3,32.7,30.53,North,0,17.8,23.7,66,0.00,,,0.00,WUHU216HW,2013-05-24 14:57:00,
2013-05-24 11:02:00,43.8,33.9,30.53,NNE,23,21.4,23.7,68,0.00,,,0.00,WUHU216HW,2013-05-24 15:02:00,
2013-05-24 11:07:00,43.8,33.2,30.53,NNE,23,21.2,23.7,66,0.00,,,0.00,WUHU216HW,2013-05-24 15:07:00,
2013-05-24 11:12:00,43.7,33.8,30.54,NNE,23,21.4,23.0,68,0.00,,,0.00,WUHU216HW,2013-05-24 15:12:00,
2013-05-24 11:17:00,44.2,33.9,30.54,NNE,23,22.3,22.3,67,0.00,,,0.00,WUHU216HW,2013-05-24 15:17:00,
2013-05-24 11:22:00,44.4,33.7,30.53,NNE,23,21.0,22.3,66,0.00,,,0.00,WUHU216HW,2013-05-24 15:22:00,
2013-05-24 11:27:00,44.7,34.0,30.54,North,0,19.2,22.3,66,0.00,,,0.00,WUHU216HW,2013-05-24 15:27:00,
2013-05-24 11:32:00,44.7,33.6,30.53,NNE,23,22.1,22.1,65,0.00,,,0.00,WUHU216HW,2013-05-24 15:32:00,
2013-05-24 11:37:00,44.9,35.0,30.53,NNE,23,20.3,22.1,68,0.00,,,0.00,WUHU216HW,2013-05-24 15:37:00,
2013-05-24 11:43:00,45.1,34.4,30.53,NNE,23,17.0,22.1,66,0.00,,,0.00,WUHU216HW,2013-05-24 15:43:00,
2013-05-24 11:48:00,45.5,33.9,30.53,NNE,23,22.1,22.1,64,0.00,,,0.00,WUHU216HW,2013-05-24 15:48:00,
2013-05-24 11:53:00,45.6,34.5,30.53,NNE,23,21.0,22.1,65,0.00,,,0.00,WUHU216HW,2013-05-24 15:53:00,
2013-05-24 11:58:00,45.6,34.1,30.53,NNE,23,21.0,21.0,64,0.00,,,0.00,WUHU216HW,2013-05-24 15:58:00,
2013-05-24 12:03:00,45.6,33.7,30.54,North,0,22.5,22.5,63,0.00,,,0.00,WUHU216HW,2013-05-24 16:03:00,
2013-05-24 12:08:00,46.0,35.2,30.53,NNE,23,19.2,22.5,66,0.00,,,0.00,WUHU216HW,2013-05-24 16:08:00,
2013-05-24 12:13:00,46.2,34.6,30.53,NNE,23,22.3,22.3,64,0.00,,,0.00,WUHU216HW,2013-05-24 16:13:00,
2013-05-24 12:18:00,46.2,33.8,30.53,NNE,23,22.3,23.2,62,0.00,,,0.00,WUHU216HW,2013-05-24 16:18:00,
2013-05-24 12:23:00,46.5,35.0,30.53,NNE,23,23.4,23.4,64,0.00,,,0.00,WUHU216HW,2013-05-24 16:23:00,
2013-05-24 12:28:00,46.5,35.0,30.53,NNE,23,21.6,23.4,64,0.00,,,0.00,WUHU216HW,2013-05-24 16:28:00,
2013-05-24 12:34:00,46.7,35.1,30.53,NNE,23,20.3,21.6,64,0.00,,,0.00,WUHU216HW,2013-05-24 16:34:00,
2013-05-24 12:39:00,46.9,34.9,30.53,NNE,23,21.9,21.9,63,0.00,,,0.00,WUHU216HW,2013-05-24 16:39:00,
2013-05-24 12:44:00,47.3,35.7,30.53,NNE,23,22.5,22.5,63,0.00,,,0.00,WUHU216HW,2013-05-24 16:44:00,
2013-05-24 12:49:00,47.3,35.3,30.53,NNE,23,20.1,24.6,63,0.00,,,0.00,WUHU216HW,2013-05-24 16:49:00,
2013-05-24 12:54:00,47.3,35.3,30.53,NE,45,17.0,21.9,63,0.00,,,0.00,WUHU216HW,2013-05-24 16:54:00,
2013-05-24 12:59:00,47.3,35.7,30.53,NNE,23,15.8,23.2,64,0.00,,,0.00,WUHU216HW,2013-05-24 16:59:00,
2013-05-24 13:04:00,47.8,35.8,30.53,NNE,23,22.3,23.2,63,0.00,,,0.00,WUHU216HW,2013-05-24 17:04:00,
2013-05-24 13:09:00,47.6,35.6,30.54,NE,45,17.2,22.3,63,0.00,,,0.00,WUHU216HW,2013-05-24 17:09:00,
2013-05-24 13:14:00,47.6,35.2,30.54,NNE,23,19.9,21.4,62,0.00,,,0.00,WUHU216HW,2013-05-24 17:14:00,
2013-05-24 13:19:00,47.6,35.2,30.54,NNE,23,17.8,23.4,62,0.00,,,0.00,WUHU216HW,2013-05-24 17:19:00,
2013-05-24 13:25:00,48.0,35.6,30.54,NNE,23,22.1,23.4,62,0.00,,,0.00,WUHU216HW,2013-05-24 17:25:00,
2013-05-24 13:30:00,48.2,36.1,30.54,NNE,23,15.8,22.1,63,0.00,,,0.00,WUHU216HW,2013-05-24 17:30:00,
2013-05-24 13:35:00,48.5,36.1,30.54,NNE,23,18.1,18.1,62,0.00,,,0.00,WUHU216HW,2013-05-24 17:35:00,
2013-05-24 13:40:00,48.7,36.3,30.54,NNE,23,15.8,18.1,62,0.00,,,0.00,WUHU216HW,2013-05-24 17:40:00,
2013-05-24 13:45:00,48.5,35.7,30.53,NNE,23,16.3,18.3,61,0.00,,,0.00,WUHU216HW,2013-05-24 17:45:00,
2013-05-24 13:50:00,48.9,35.7,30.53,NE,45,18.7,18.7,60,0.00,,,0.00,WUHU216HW,2013-05-24 17:50:00,
2013-05-24 13:55:00,48.7,36.3,30.54,NNE,23,20.8,20.8,62,0.00,,,0.00,WUHU216HW,2013-05-24 17:55:00,
2013-05-24 14:00:00,48.9,37.2,30.53,NNE,23,19.6,20.8,64,0.00,,,0.00,WUHU216HW,2013-05-24 18:00:00,
2013-05-24 14:05:00,48.9,37.6,30.53,NNE,23,20.1,20.8,65,0.00,,,0.00,WUHU216HW,2013-05-24 18:05:00,
2013-05-24 14:11:00,48.9,36.8,30.53,NNE,23,21.0,21.0,63,0.00,,,0.00,WUHU216HW,2013-05-24 18:11:00,
2013-05-24 14:16:00,48.9,36.4,30.53,NNE,23,15.6,21.0,62,0.00,,,0.00,WUHU216HW,2013-05-24 18:16:00,
2013-05-24 14:21:00,48.9,36.8,30.53,NNE,23,13.4,21.0,63,0.00,,,0.00,WUHU216HW,2013-05-24 18:21:00,
2013-05-24 14:26:00,49.1,36.2,30.53,NNE,23,17.2,20.5,61,0.00,,,0.00,WUHU216HW,2013-05-24 18:26:00,
2013-05-24 14:31:00,49.2,36.8,30.53,NNE,23,16.3,20.5,62,0.00,,,0.00,WUHU216HW,2013-05-24 18:31:00,
2013-05-24 14:36:00,49.6,36.7,30.54,NNE,23,15.6,17.8,61,0.00,,,0.00,WUHU216HW,2013-05-24 18:36:00,
2013-05-24 14:41:00,49.8,36.0,30.53,NNE,23,17.4,20.5,59,0.00,,,0.00,WUHU216HW,2013-05-24 18:41:00,
2013-05-24 14:46:00,49.8,36.5,30.53,NNE,23,19.4,20.5,60,0.00,,,0.00,WUHU216HW,2013-05-24 18:46:00,
2013-05-24 14:51:00,49.8,36.5,30.53,NNE,23,15.8,19.6,60,0.00,,,0.00,WUHU216HW,2013-05-24 18:51:00,
2013-05-24 14:56:00,49.8,36.8,30.53,NNE,23,19.0,19.6,61,0.00,,,0.00,WUHU216HW,2013-05-24 18:56:00,
2013-05-24 15:02:00,50.0,37.4,30.54,NNE,23,15.8,19.0,62,0.00,,,0.00,WUHU216HW,2013-05-24 19:02:00,
2013-05-24 15:07:00,49.8,36.0,30.54,NNE,23,14.5,19.0,59,0.00,,,0.00,WUHU216HW,2013-05-24 19:07:00,
2013-05-24 15:12:00,49.8,36.0,30.54,NNE,23,17.0,19.6,59,0.00,,,0.00,WUHU216HW,2013-05-24 19:12:00,
2013-05-24 15:17:00,49.6,35.8,30.54,NNE,23,19.6,19.6,59,0.00,,,0.00,WUHU216HW,2013-05-24 19:17:00,
2013-05-24 15:22:00,49.6,36.3,30.54,NNE,23,19.0,20.5,60,0.00,,,0.00,WUHU216HW,2013-05-24 19:22:00,
2013-05-24 15:27:00,49.6,36.7,30.53,NNE,23,19.4,20.5,61,0.00,,,0.00,WUHU216HW,2013-05-24 19:27:00,
2013-05-24 15:32:00,49.8,36.8,30.53,NE,45,14.3,19.4,61,0.00,,,0.00,WUHU216HW,2013-05-24 19:32:00,
2013-05-24 15:37:00,50.0,36.6,30.53,NNE,23,18.3,19.4,60,0.00,,,0.00,WUHU216HW,2013-05-24 19:37:00,
2013-05-24 15:42:00,50.1,37.2,30.53,NE,45,13.8,18.3,61,0.00,,,0.00,WUHU216HW,2013-05-24 19:42:00,
2013-05-24 15:47:00,50.1,37.2,30.53,NNE,23,19.6,19.6,61,0.00,,,0.00,WUHU216HW,2013-05-24 19:47:00,
2013-05-24 15:52:00,50.3,37.4,30.53,NE,45,16.1,19.6,61,0.00,,,0.00,WUHU216HW,2013-05-24 19:52:00,
2013-05-24 15:57:00,50.5,37.9,30.53,NNE,23,15.8,19.6,62,0.00,,,0.00,WUHU216HW,2013-05-24 19:57:00,
2013-05-24 16:02:00,50.5,37.5,30.53,NNE,23,17.2,18.3,61,0.00,,,0.00,WUHU216HW,2013-05-24 20:02:00,
2013-05-24 16:08:00,50.3,37.4,30.53,NE,45,17.4,17.4,61,0.00,,,0.00,WUHU216HW,2013-05-24 20:08:00,
2013-05-24 16:13:00,50.1,37.6,30.53,NNE,23,17.0,19.2,62,0.00,,,0.00,WUHU216HW,2013-05-24 20:13:00,
2013-05-24 16:18:00,50.1,36.8,30.53,NE,45,16.3,19.2,60,0.00,,,0.00,WUHU216HW,2013-05-24 20:18:00,
2013-05-24 16:23:00,50.1,36.8,30.53,NNE,23,16.3,17.0,60,0.00,,,0.00,WUHU216HW,2013-05-24 20:23:00,
2013-05-24 16:28:00,50.1,37.2,30.53,NE,45,13.1,16.3,61,0.00,,,0.00,WUHU216HW,2013-05-24 20:28:00,
2013-05-24 16:33:00,50.3,37.4,30.52,NNE,23,16.7,18.1,61,0.00,,,0.00,WUHU216HW,2013-05-24 20:33:00,
2013-05-24 16:38:00,49.8,36.5,30.52,NE,45,17.6,18.1,60,0.00,,,0.00,WUHU216HW,2013-05-24 20:38:00,
2013-05-24 16:43:00,49.8,36.5,30.52,NE,45,11.8,17.6,60,0.00,,,0.00,WUHU216HW,2013-05-24 20:43:00,
2013-05-24 16:48:00,49.8,36.5,30.52,NE,45,14.0,17.6,60,0.00,,,0.00,WUHU216HW,2013-05-24 20:48:00,
2013-05-24 16:54:00,49.6,36.3,30.51,NNE,23,14.5,16.7,60,0.00,,,0.00,WUHU216HW,2013-05-24 20:54:00,
2013-05-24 16:59:00,49.8,36.8,30.52,NNE,23,18.3,18.3,61,0.00,,,0.00,WUHU216HW,2013-05-24 20:59:00,
2013-05-24 17:04:00,49.6,37.1,30.51,NE,45,15.4,18.3,62,0.00,,,0.00,WUHU216HW,2013-05-24 21:04:00,
2013-05-24 17:09:00,49.6,37.5,30.51,NE,45,12.7,15.4,63,0.00,,,0.00,WUHU216HW,2013-05-24 21:09:00,
2013-05-24 17:14:00,49.2,36.4,30.51,NNE,23,17.2,17.2,61,0.00,,,0.00,WUHU216HW,2013-05-24 21:14:00,
2013-05-24 17:19:00,48.9,36.4,30.51,NE,45,15.2,17.2,62,0.00,,,0.00,WUHU216HW,2013-05-24 21:19:00,
2013-05-24 17:24:00,48.9,36.8,30.51,NNE,23,16.5,16.5,63,0.00,,,0.00,WUHU216HW,2013-05-24 21:24:00,
2013-05-24 17:29:00,49.2,37.1,30.51,NE,45,16.1,18.7,63,0.00,,,0.00,WUHU216HW,2013-05-24 21:29:00,
2013-05-24 17:34:00,49.2,36.4,30.51,NNE,23,14.5,18.7,61,0.00,,,0.00,WUHU216HW,2013-05-24 21:34:00,
2013-05-24 17:39:00,49.4,37.3,30.51,NE,45,11.8,16.1,63,0.00,,,0.00,WUHU216HW,2013-05-24 21:39:00,
2013-05-24 17:44:00,49.8,36.8,30.51,NE,45,12.0,14.7,61,0.00,,,0.00,WUHU216HW,2013-05-24 21:44:00,
2013-05-24 17:50:00,50.3,37.4,30.51,NNE,23,12.0,14.3,61,0.00,,,0.00,WUHU216HW,2013-05-24 21:50:00,
2013-05-24 17:55:00,50.5,37.9,30.51,NNE,23,10.7,13.1,62,0.00,,,0.00,WUHU216HW,2013-05-24 21:55:00,
2013-05-24 18:00:00,51.8,38.7,30.51,NE,45,7.3,13.1,61,0.00,,,0.00,WUHU216HW,2013-05-24 22:00:00,
2013-05-24 18:05:00,53.6,39.1,30.51,East,90,5.8,7.3,58,0.00,,,0.00,WUHU216HW,2013-05-24 22:05:00,
2013-05-24 18:10:00,56.1,40.1,30.51,SE,135,5.1,5.8,55,0.00,,,0.00,WUHU216HW,2013-05-24 22:10:00,
2013-05-24 18:15:00,56.8,39.8,30.51,SE,135,4.2,6.0,53,0.00,,,0.00,WUHU216HW,2013-05-24 22:15:00,
2013-05-24 18:20:00,57.0,39.1,30.51,SE,135,5.3,6.0,51,0.00,,,0.00,WUHU216HW,2013-05-24 22:20:00,
2013-05-24 18:25:00,57.3,39.0,30.51,SSE,158,2.0,5.3,50,0.00,,,0.00,WUHU216HW,2013-05-24 22:25:00,
2013-05-24 18:30:00,56.8,38.4,30.51,SE,135,5.1,5.1,50,0.00,,,0.00,WUHU216HW,2013-05-24 22:30:00,
2013-05-24 18:36:00,55.5,36.6,30.51,SSE,158,3.8,5.1,49,0.00,,,0.00,WUHU216HW,2013-05-24 22:36:00,
2013-05-24 18:41:00,52.5,34.8,30.51,SE,135,2.9,4.9,51,0.00,,,0.00,WUHU216HW,2013-05-24 22:41:00,
2013-05-24 18:46:00,50.7,34.1,30.51,SE,135,3.3,3.3,53,0.00,,,0.00,WUHU216HW,2013-05-24 22:46:00,
2013-05-24 18:51:00,49.8,34.2,30.50,SSE,158,3.8,3.8,55,0.00,,,0.00,WUHU216HW,2013-05-24 22:51:00,
2013-05-24 18:56:00,49.8,34.2,30.50,SSE,158,6.9,6.9,55,0.00,,,0.00,WUHU216HW,2013-05-24 22:56:00,
2013-05-24 19:01:00,49.2,33.6,30.50,SE,135,5.5,6.9,55,0.00,,,0.00,WUHU216HW,2013-05-24 23:01:00,
2013-05-24 19:06:00,47.6,33.1,30.50,SE,135,5.5,5.5,57,0.00,,,0.00,WUHU216HW,2013-05-24 23:06:00,
2013-05-24 19:11:00,46.7,32.7,30.49,SSE,158,5.3,6.0,58,0.00,,,0.00,WUHU216HW,2013-05-24 23:11:00,
2013-05-24 19:17:00,45.6,33.3,30.50,SSE,158,8.2,8.2,62,0.00,,,0.00,WUHU216HW,2013-05-24 23:17:00,
2013-05-24 19:22:00,45.3,33.4,30.50,SSE,158,7.3,8.2,63,0.00,,,0.00,WUHU216HW,2013-05-24 23:22:00,
2013-05-24 19:27:00,44.9,33.0,30.49,SSE,158,8.9,8.9,63,0.00,,,0.00,WUHU216HW,2013-05-24 23:27:00,
2013-05-24 19:32:00,44.7,33.3,30.50,South,180,5.3,8.9,64,0.00,,,0.00,WUHU216HW,2013-05-24 23:32:00,
2013-05-24 19:37:00,44.4,32.9,30.50,SSE,158,4.0,5.8,64,0.00,,,0.00,WUHU216HW,2013-05-24 23:37:00,
2013-05-24 19:42:00,44.2,32.7,30.50,South,180,3.5,5.3,64,0.00,,,0.00,WUHU216HW,2013-05-24 23:42:00,
2013-05-24 19:47:00,44.2,32.7,30.49,South,180,5.1,5.1,64,0.00,,,0.00,WUHU216HW,2013-05-24 23:47:00,
2013-05-24 19:52:00,44.2,32.7,30.49,SSE,158,2.0,5.1,64,0.00,,,0.00,WUHU216HW,2013-05-24 23:52:00,
2013-05-24 19:57:00,43.7,32.2,30.50,SSE,158,0.0,2.4,64,0.00,,,0.00,WUHU216HW,2013-05-24 23:57:00,
2013-05-24 20:03:00,43.3,31.9,30.49,SE,135,0.0,1.7,64,0.00,,,0.00,WUHU216HW,2013-05-25 00:03:00,
2013-05-24 20:08:00,43.5,32.8,30.49,SE,135,0.0,0.0,66,0.00,,,0.00,WUHU216HW,2013-05-25 00:08:00,
2013-05-24 20:13:00,44.2,33.5,30.50,SSE,158,3.5,3.5,66,0.00,,,0.00,WUHU216HW,2013-05-25 00:13:00,
2013-05-24 20:18:00,44.4,32.9,30.49,SSE,158,0.6,3.5,64,0.00,,,0.00,WUHU216HW,2013-05-25 00:18:00,
2013-05-24 20:23:00,44.2,32.7,30.49,SSE,158,0.0,3.5,64,0.00,,,0.00,WUHU216HW,2013-05-25 00:23:00,
2013-05-24 20:28:00,43.1,32.1,30.49,SE,135,1.5,2.9,65,0.00,,,0.00,WUHU216HW,2013-05-25 00:28:00,
2013-05-24 20:33:00,42.6,32.0,30.49,SSW,203,0.0,2.9,66,0.00,,,0.00,WUHU216HW,2013-05-25 00:33:00,
2013-05-24 20:38:00,42.4,32.2,30.49,SSW,203,0.0,2.6,67,0.00,,,0.00,WUHU216HW,2013-05-25 00:38:00,
2013-05-24 20:43:00,41.9,32.1,30.48,SW,225,0.0,2.6,68,0.00,,,0.00,WUHU216HW,2013-05-25 00:43:00,
2013-05-24 20:49:00,41.1,31.7,30.49,SSW,203,0.0,0.0,68,0.00,,,0.00,WUHU216HW,2013-05-25 00:49:00,
2013-05-24 20:54:00,40.6,31.2,30.48,SW,225,0.0,0.0,69,0.00,,,0.00,WUHU216HW,2013-05-25 00:54:00,
2013-05-24 20:59:00,40.1,31.1,30.49,SW,225,0.0,0.0,70,0.00,,,0.00,WUHU216HW,2013-05-25 00:59:00,
2013-05-24 21:04:00,39.9,31.2,30.49,WSW,248,0.0,0.0,71,0.00,,,0.00,WUHU216HW,2013-05-25 01:04:00,
2013-05-24 21:09:00,39.3,31.0,30.49,WSW,248,0.0,0.0,72,0.00,,,0.00,WUHU216HW,2013-05-25 01:09:00,
2013-05-24 21:14:00,38.8,30.8,30.48,West,270,0.0,0.0,73,0.00,,,0.00,WUHU216HW,2013-05-25 01:14:00,
2013-05-24 21:19:00,38.3,30.7,30.48,WSW,248,0.0,0.0,74,0.00,,,0.00,WUHU216HW,2013-05-25 01:19:00,
2013-05-24 21:24:00,37.9,30.7,30.48,West,270,0.0,0.0,75,0.00,,,0.00,WUHU216HW,2013-05-25 01:24:00,
2013-05-24 21:29:00,37.7,31.1,30.48,West,270,0.0,0.0,77,0.00,,,0.00,WUHU216HW,2013-05-25 01:29:00,
2013-05-24 21:34:00,37.5,31.0,30.48,West,270,0.0,0.0,77,0.00,,,0.00,WUHU216HW,2013-05-25 01:34:00,
2013-05-24 21:39:00,37.2,30.6,30.48,West,270,0.0,0.0,77,0.00,,,0.00,WUHU216HW,2013-05-25 01:39:00,
2013-05-24 21:45:00,37.2,30.9,30.48,West,270,0.0,1.3,78,0.00,,,0.00,WUHU216HW,2013-05-25 01:45:00,
2013-05-24 21:49:00,37.0,30.8,30.48,West,270,0.0,1.3,78,0.00,,,0.00,WUHU216HW,2013-05-25 01:49:00,
2013-05-24 21:55:00,37.0,31.1,30.48,West,270,0.0,0.0,79,0.00,,,0.00,WUHU216HW,2013-05-25 01:55:00,
2013-05-24 22:00:00,36.8,31.2,30.48,West,270,0.0,0.0,80,0.00,,,0.00,WUHU216HW,2013-05-25 02:00:00,
2013-05-24 22:05:00,36.6,31.1,30.48,West,270,0.0,0.0,80,0.00,,,0.00,WUHU216HW,2013-05-25 02:05:00,
2013-05-24 22:10:00,36.5,30.9,30.49,WNW,293,0.0,0.0,80,0.00,,,0.00,WUHU216HW,2013-05-25 02:10:00,
2013-05-24 22:15:00,36.3,31.0,30.49,WNW,293,0.0,0.0,81,0.00,,,0.00,WUHU216HW,2013-05-25 02:15:00,
2013-05-24 22:20:00,36.3,31.0,30.49,North,0,0.0,0.0,81,0.00,,,0.00,WUHU216HW,2013-05-25 02:20:00,
2013-05-24 22:25:00,36.1,31.1,30.49,West,270,0.0,0.0,82,0.00,,,0.00,WUHU216HW,2013-05-25 02:25:00,
2013-05-24 22:30:00,36.1,31.1,30.50,West,270,0.0,0.0,82,0.00,,,0.00,WUHU216HW,2013-05-25 02:30:00,
2013-05-24 22:35:00,36.1,31.1,30.49,West,270,0.0,0.0,82,0.00,,,0.00,WUHU216HW,2013-05-25 02:35:00,
2013-05-24 22:41:00,35.9,31.2,30.50,WNW,293,0.0,0.0,83,0.00,,,0.00,WUHU216HW,2013-05-25 02:41:00,
2013-05-24 22:46:00,35.7,31.0,30.50,West,270,0.0,0.0,83,0.00,,,0.00,WUHU216HW,2013-05-25 02:46:00,
2013-05-24 22:51:00,35.7,31.0,30.51,West,270,0.0,0.0,83,0.00,,,0.00,WUHU216HW,2013-05-25 02:51:00,
2013-05-24 22:56:00,35.7,31.3,30.51,West,270,0.0,0.0,84,0.00,,,0.00,WUHU216HW,2013-05-25 02:56:00,
2013-05-24 23:01:00,35.7,31.3,30.51,West,270,0.0,0.0,84,0.00,,,0.00,WUHU216HW,2013-05-25 03:01:00,
2013-05-24 23:06:00,35.7,31.3,30.51,West,270,0.0,0.0,84,0.00,,,0.00,WUHU216HW,2013-05-25 03:06:00,
2013-05-24 23:11:00,35.7,31.6,30.52,West,270,0.0,0.0,85,0.00,,,0.00,WUHU216HW,2013-05-25 03:11:00,
2013-05-24 23:16:00,35.7,31.6,30.52,West,270,0.0,0.0,85,0.00,,,0.00,WUHU216HW,2013-05-25 03:16:00,
2013-05-24 23:21:00,35.7,31.6,30.52,West,270,0.0,1.3,85,0.00,,,0.00,WUHU216HW,2013-05-25 03:21:00,
2013-05-24 23:27:00,35.4,31.2,30.51,West,270,0.0,1.3,85,0.00,,,0.00,WUHU216HW,2013-05-25 03:27:00,
2013-05-24 23:32:00,35.7,31.6,30.52,West,270,0.0,1.7,85,0.00,,,0.00,WUHU216HW,2013-05-25 03:32:00,
2013-05-24 23:37:00,35.7,31.9,30.52,WSW,248,2.0,2.0,86,0.00,,,0.00,WUHU216HW,2013-05-25 03:37:00,
2013-05-24 23:42:00,35.9,32.1,30.52,West,270,0.0,2.0,86,0.00,,,0.00,WUHU216HW,2013-05-25 03:42:00,
2013-05-24 23:47:00,36.1,32.2,30.52,West,270,2.0,2.0,86,0.00,,,0.00,WUHU216HW,2013-05-25 03:47:00,
2013-05-24 23:52:00,35.9,32.1,30.52,WNW,293,0.0,2.0,86,0.00,,,0.00,WUHU216HW,2013-05-25 03:52:00,
2013-05-24 23:57:00,35.9,32.1,30.53,WSW,248,0.6,0.8,86,0.00,,,0.00,WUHU216HW,2013-05-25 03:57:00,